< VanCam Weather - WU Station History
^^
Station Historical Data
Daily Summary for January 13, 2018 Units:  English    Metric   Both
« Previous Day
Next Day »
Daily Weekly Monthly Yearly Custom
  High: Low: Average:
Temperature: 59.8 °F 38.5 °F 46.9 °F
Dew Point: 52.7 °F 38.0 °F 45.4 °F
Humidity: 99% 76% 95%
Wind Speed: 3.5mph 0.0mph 0.5mph
Wind Gust: 3.5mph - -
Wind- - SSW
Pressure: 30.43 in 30.21 in -
Precipitation: 0.01 in    
Historical Graphs
 
 
Tabular Data for January 13, 2018
Time Temperature Dew Point Pressure Wind Wind Speed Wind Gust Humidity Rainfall Rate (Hourly) solar Conditions
00:03 46.8 °F 46.0 °F 30.41 in Calm     97% 0.00 in WeatherDisplay:10.37 W/m2 RA
00:09 46.8 °F 46.0 °F 30.41 in ENE 1.2 mph 1.2 mph 97% 0.00 in WeatherDisplay:10.37 W/m2 RA
00:25 46.7 °F 45.9 °F 30.41 in Calm     97% 0.00 in WeatherDisplay:10.37 W/m2 CLR
00:30 46.6 °F 45.8 °F 30.41 in Calm     97% 0.00 in WeatherDisplay:10.37 W/m2 CLR
00:41 46.5 °F 45.7 °F 30.41 in Calm     97% 0.00 in WeatherDisplay:10.37 W/m2 CLR
00:47 46.5 °F 45.7 °F 30.41 in Calm     97% 0.00 in WeatherDisplay:10.37 W/m2 CLR
01:01 46.6 °F 45.8 °F 30.41 in Calm     97% 0.00 in WeatherDisplay:10.37 W/m2 CLR
01:07 46.6 °F 45.8 °F 30.41 in Calm     97% 0.00 in WeatherDisplay:10.37 W/m2 CLR
01:19 46.5 °F 45.7 °F 30.41 in Calm     97% 0.00 in WeatherDisplay:10.37 W/m2 CLR
01:24 46.6 °F 45.8 °F 30.41 in Calm     97% 0.00 in WeatherDisplay:10.37 W/m2 CLR
01:33 46.6 °F 46.1 °F 30.41 in Calm     98% 0.00 in WeatherDisplay:10.37 W/m2 CLR
01:47 46.6 °F 46.1 °F 30.41 in Calm     98% 0.00 in WeatherDisplay:10.37 W/m2 CLR
01:54 46.6 °F 46.1 °F 30.41 in Calm     98% 0.00 in WeatherDisplay:10.37 W/m2 CLR
02:07 46.6 °F 46.1 °F 30.42 in Calm     98% 0.00 in WeatherDisplay:10.37 W/m2 CLR
02:12 46.6 °F 46.1 °F 30.42 in Calm     98% 0.00 in WeatherDisplay:10.37 W/m2 CLR
02:19 46.6 °F 46.1 °F 30.42 in Calm     98% 0.00 in WeatherDisplay:10.37 W/m2 CLR
02:31 46.6 °F 46.1 °F 30.42 in Calm     98% 0.00 in WeatherDisplay:10.37 W/m2 CLR
02:39 46.7 °F 46.2 °F 30.42 in Calm     98% 0.00 in WeatherDisplay:10.37 W/m2 CLR
02:49 46.6 °F 46.1 °F 30.42 in Calm     98% 0.00 in WeatherDisplay:10.37 W/m2 CLR
03:03 46.6 °F 46.1 °F 30.42 in Calm     98% 0.00 in WeatherDisplay:10.37 W/m2 CLR
03:10 46.6 °F 46.1 °F 30.42 in Calm     98% 0.00 in WeatherDisplay:10.37 W/m2 CLR
03:21 46.6 °F 46.1 °F 30.42 in Calm     98% 0.00 in WeatherDisplay:10.37 W/m2 CLR
03:27 46.6 °F 46.1 °F 30.42 in Calm     98% 0.00 in WeatherDisplay:10.37 W/m2 CLR
03:33 46.6 °F 46.1 °F 30.43 in Calm     98% 0.00 in WeatherDisplay:10.37 W/m2 CLR
03:48 46.5 °F 46.0 °F 30.42 in Calm     98% 0.00 in WeatherDisplay:10.37 W/m2 CLR
03:56 46.5 °F 46.0 °F 30.42 in Calm     98% 0.00 in WeatherDisplay:10.37 W/m2 CLR
04:02 46.5 °F 46.0 °F 30.42 in Calm     98% 0.00 in WeatherDisplay:10.37 W/m2 CLR
04:12 46.5 °F 46.0 °F 30.42 in Calm     98% 0.00 in WeatherDisplay:10.37 W/m2 CLR
04:34 46.6 °F 46.1 °F 30.42 in Calm     98% 0.00 in WeatherDisplay:10.37 W/m2 CLR
04:48 46.6 °F 46.1 °F 30.42 in Calm     98% 0.00 in WeatherDisplay:10.37 W/m2 CLR
04:55 46.6 °F 46.1 °F 30.42 in Calm     98% 0.00 in WeatherDisplay:10.37 W/m2 CLR
05:19 46.7 °F 46.2 °F 30.41 in Calm     98% 0.00 in WeatherDisplay:10.37 W/m2 CLR
05:25 46.7 °F 46.2 °F 30.41 in Calm     98% 0.00 in WeatherDisplay:10.37 W/m2 CLR
05:31 46.7 °F 46.2 °F 30.42 in Calm     98% 0.00 in WeatherDisplay:10.37 W/m2 CLR
05:43 46.7 °F 46.2 °F 30.41 in Calm     98% 0.00 in WeatherDisplay:10.37 W/m2 CLR
05:51 46.7 °F 46.2 °F 30.41 in Calm     98% 0.00 in WeatherDisplay:10.37 W/m2 CLR
06:00 46.7 °F 46.2 °F 30.41 in Calm     98% 0.00 in WeatherDisplay:10.37 W/m2 CLR
06:05 46.8 °F 46.3 °F 30.41 in Calm     98% 0.00 in WeatherDisplay:10.37 W/m2 CLR
06:15 46.7 °F 46.2 °F 30.41 in Calm     98% 0.00 in WeatherDisplay:10.37 W/m2 CLR
06:22 46.7 °F 46.2 °F 30.41 in Calm     98% 0.00 in WeatherDisplay:10.37 W/m2 CLR
06:33 46.6 °F 46.1 °F 30.41 in Calm     98% 0.00 in WeatherDisplay:10.37 W/m2 CLR
06:40 46.4 °F 45.9 °F 30.41 in Calm     98% 0.00 in WeatherDisplay:10.37 W/m2 CLR
06:48 46.3 °F 45.8 °F 30.41 in Calm     98% 0.00 in WeatherDisplay:10.37 W/m2 CLR
06:55 46.2 °F 45.7 °F 30.41 in Calm     98% 0.00 in WeatherDisplay:10.37 W/m2 CLR
07:11 45.8 °F 45.3 °F 30.41 in Calm     98% 0.00 in WeatherDisplay:10.37 W/m2 CLR
07:18 45.6 °F 45.1 °F 30.41 in Calm     98% 0.00 in WeatherDisplay:10.37 W/m2 CLR
07:24 45.5 °F 44.7 °F 30.41 in Calm     97% 0.00 in WeatherDisplay:10.37 W/m2 CLR
07:29 45.3 °F 44.5 °F 30.41 in Calm     97% 0.00 in WeatherDisplay:10.37 W/m2 CLR
07:34 45.1 °F 44.3 °F 30.41 in Calm     97% 0.00 in WeatherDisplay:10.37 W/m2 CLR
07:41 44.7 °F 43.9 °F 30.41 in Calm     97% 0.00 in WeatherDisplay:10.37 W/m2 CLR
07:48 44.5 °F 43.7 °F 30.41 in Calm     97% 0.00 in WeatherDisplay:10.37 W/m2 CLR
07:55 44.2 °F 43.4 °F 30.41 in Calm     97% 0.00 in WeatherDisplay:10.37 W/m2 CLR
08:07 43.8 °F 43.0 °F 30.41 in Calm     97% 0.00 in WeatherDisplay:10.37 W/m2 CLR
08:13 43.6 °F 42.8 °F 30.41 in Calm     97% 0.00 in WeatherDisplay:10.37 W/m2 CLR
08:28 43.2 °F 42.4 °F 30.42 in Calm     97% 0.00 in WeatherDisplay:10.37 W/m2 CLR
08:34 43.2 °F 42.4 °F 30.42 in Calm     97% 0.00 in WeatherDisplay:10.37 W/m2 CLR
08:42 43.3 °F 42.8 °F 30.42 in Calm     98% 0.00 in WeatherDisplay:10.37 W/m2 CLR
08:50 43.4 °F 42.9 °F 30.42 in Calm     98% 0.00 in WeatherDisplay:10.37 W/m2 CLR
09:06 44.0 °F 43.5 °F 30.42 in Calm     98% 0.00 in WeatherDisplay:10.37 W/m2 CLR
09:12 44.2 °F 43.7 °F 30.42 in Calm     98% 0.00 in WeatherDisplay:10.37 W/m2 CLR
09:32 45.0 °F 44.5 °F 30.41 in Calm     98% 0.00 in WeatherDisplay:10.37 W/m2 CLR
09:44 45.8 °F 45.3 °F 30.41 in Calm     98% 0.00 in WeatherDisplay:10.37 W/m2 CLR
09:53 46.4 °F 45.9 °F 30.41 in Calm     98% 0.00 in WeatherDisplay:10.37 W/m2 CLR
10:11 47.1 °F 46.6 °F 30.40 in Calm     98% 0.00 in WeatherDisplay:10.37 W/m2 CLR
10:26 47.8 °F 47.5 °F 30.40 in Calm     99% 0.00 in WeatherDisplay:10.37 W/m2 CLR
10:42 48.2 °F 47.9 °F 30.39 in NNW 2.3 mph 2.3 mph 99% 0.00 in WeatherDisplay:10.37 W/m2 CLR
10:47 48.4 °F 48.1 °F 30.39 in NNW 1.2 mph 1.2 mph 99% 0.00 in WeatherDisplay:10.37 W/m2 CLR
10:54 48.7 °F 48.2 °F 30.39 in NNW 1.2 mph 1.2 mph 98% 0.00 in WeatherDisplay:10.37 W/m2 CLR
11:01 49.0 °F 48.5 °F 30.38 in SW 3.5 mph 3.5 mph 98% 0.00 in WeatherDisplay:10.37 W/m2 CLR
11:07 49.4 °F 48.3 °F 30.38 in SSW 2.3 mph 2.3 mph 96% 0.00 in WeatherDisplay:10.37 W/m2 CLR
11:16 49.9 °F 48.2 °F 30.38 in West 2.3 mph 2.3 mph 94% 0.00 in WeatherDisplay:10.37 W/m2 CLR
11:23 50.4 °F 48.2 °F 30.37 in SSW 2.3 mph 2.3 mph 92% 0.00 in WeatherDisplay:10.37 W/m2 CLR
11:32 51.0 °F 48.8 °F 30.37 in WNW 2.3 mph 2.3 mph 92% 0.00 in WeatherDisplay:10.37 W/m2 CLR
11:53 52.3 °F 49.2 °F 30.36 in SW 3.5 mph 3.5 mph 89% 0.00 in WeatherDisplay:10.37 W/m2 CLR
12:10 53.9 °F 49.8 °F 30.36 in SW 2.3 mph 2.3 mph 86% 0.00 in WeatherDisplay:10.37 W/m2 CLR
12:17 54.3 °F 49.9 °F 30.35 in West 1.2 mph 1.2 mph 85% 0.00 in WeatherDisplay:10.37 W/m2 CLR
12:23 54.6 °F 49.9 °F 30.35 in WNW 2.3 mph 2.3 mph 84% 0.00 in WeatherDisplay:10.37 W/m2 CLR
12:30 54.9 °F 49.8 °F 30.35 in WNW 1.0 mph 2.0 mph 83% 0.00 in WeatherDisplay:10.37 W/m2 CLR
12:51 56.1 °F 50.7 °F 30.33 in South 2.3 mph 2.3 mph 82% 0.00 in WeatherDisplay:10.37 W/m2 CLR
12:59 56.6 °F 51.2 °F 30.33 in South 1.2 mph   82% 0.00 in WeatherDisplay:10.37 W/m2 CLR
13:10 56.9 °F 50.5 °F 30.32 in South 2.3 mph 2.3 mph 79% 0.00 in WeatherDisplay:10.37 W/m2 CLR
13:15 56.8 °F 50.4 °F 30.32 in South 2.3 mph 2.3 mph 79% 0.00 in WeatherDisplay:10.37 W/m2 CLR
13:31 57.7 °F 51.6 °F 30.32 in South 2.0 mph 2.1 mph 80% 0.00 in WeatherDisplay:10.37 W/m2 CLR
13:38 58.1 °F 50.9 °F 30.31 in South 2.3 mph 2.3 mph 77% 0.00 in WeatherDisplay:10.37 W/m2 CLR
13:49 58.5 °F 51.3 °F 30.31 in South 2.3 mph 2.3 mph 77% 0.00 in WeatherDisplay:10.37 W/m2 CLR
14:08 59.0 °F 52.1 °F 30.30 in NW 1.2 mph 1.2 mph 78% 0.00 in WeatherDisplay:10.37 W/m2 CLR
14:16 59.5 °F 51.9 °F 30.30 in West 2.3 mph 2.3 mph 76% 0.00 in WeatherDisplay:10.37 W/m2 CLR
14:29 59.6 °F 52.0 °F 30.29 in Calm     76% 0.00 in WeatherDisplay:10.37 W/m2 CLR
14:42 59.8 °F 52.2 °F 30.29 in South 1.2 mph 1.2 mph 76% 0.00 in WeatherDisplay:10.37 W/m2 CLR
15:12 58.2 °F 52.7 °F 30.28 in Calm     82% 0.00 in WeatherDisplay:10.37 W/m2 CLR
15:41 55.1 °F 51.6 °F 30.27 in Calm     88% 0.00 in WeatherDisplay:10.37 W/m2 CLR
15:48 54.2 °F 51.0 °F 30.27 in Calm     89% 0.00 in WeatherDisplay:10.37 W/m2 CLR
15:54 53.7 °F 50.8 °F 30.27 in Calm     90% 0.00 in WeatherDisplay:10.37 W/m2 CLR
16:15 52.3 °F 50.0 °F 30.26 in Calm     92% 0.00 in WeatherDisplay:10.37 W/m2 CLR
16:23 51.8 °F 49.8 °F 30.26 in Calm     93% 0.00 in WeatherDisplay:10.37 W/m2 CLR
16:35 51.3 °F 49.3 °F 30.26 in Calm     93% 0.00 in WeatherDisplay:10.37 W/m2 CLR
16:43 50.8 °F 48.6 °F 30.26 in Calm     92% 0.00 in WeatherDisplay:10.37 W/m2 CLR
16:50 50.4 °F 48.7 °F 30.25 in Calm     94% 0.00 in WeatherDisplay:10.37 W/m2 CLR
17:19 48.7 °F 47.1 °F 30.25 in Calm     94% 0.00 in WeatherDisplay:10.37 W/m2 CLR
17:38 47.2 °F 45.6 °F 30.26 in Calm     94% 0.00 in WeatherDisplay:10.37 W/m2 CLR
17:44 47.0 °F 45.6 °F 30.25 in Calm     95% 0.00 in WeatherDisplay:10.37 W/m2 CLR
17:50 46.7 °F 45.3 °F 30.25 in Calm     95% 0.00 in WeatherDisplay:10.37 W/m2 CLR
18:03 46.5 °F 45.4 °F 30.25 in Calm     96% 0.00 in WeatherDisplay:10.37 W/m2 CLR
18:22 45.2 °F 44.1 °F 30.25 in Calm     96% 0.00 in WeatherDisplay:10.37 W/m2 CLR
18:38 44.7 °F 43.6 °F 30.24 in Calm     96% 0.00 in WeatherDisplay:10.37 W/m2 CLR
18:44 44.5 °F 43.4 °F 30.24 in Calm     96% 0.00 in WeatherDisplay:10.37 W/m2 CLR
18:51 44.1 °F 43.0 °F 30.24 in Calm     96% 0.00 in WeatherDisplay:10.37 W/m2 CLR
19:02 43.9 °F 42.8 °F 30.24 in ESE 2.3 mph 2.3 mph 96% 0.00 in WeatherDisplay:10.37 W/m2 CLR
19:07 43.9 °F 43.1 °F 30.24 in ESE 2.3 mph 2.3 mph 97% 0.00 in WeatherDisplay:10.37 W/m2 CLR
19:18 44.2 °F 43.4 °F 30.24 in ESE 1.2 mph 1.2 mph 97% 0.00 in WeatherDisplay:10.37 W/m2 CLR
19:25 44.0 °F 43.2 °F 30.24 in Calm     97% 0.00 in WeatherDisplay:10.37 W/m2 CLR
19:52 42.7 °F 41.6 °F 30.24 in Calm     96% 0.01 in WeatherDisplay:10.37 W/m2
20:00 42.2 °F 41.1 °F 30.24 in Calm     96% 0.01 in WeatherDisplay:10.37 W/m2 CLR
20:06 42.0 °F 40.9 °F 30.24 in ESE 1.2 mph 1.2 mph 96% 0.01 in WeatherDisplay:10.37 W/m2 CLR
20:21 41.6 °F 40.8 °F 30.24 in ESE 1.2 mph 1.2 mph 97% 0.01 in WeatherDisplay:10.37 W/m2 CLR
20:37 41.4 °F 40.6 °F 30.24 in Calm     97% 0.00 in WeatherDisplay:10.37 W/m2 CLR
20:54 41.2 °F 40.4 °F 30.24 in Calm     97% 0.00 in WeatherDisplay:10.37 W/m2 CLR
21:02 41.1 °F 40.3 °F 30.24 in Calm     97% 0.00 in WeatherDisplay:10.37 W/m2 CLR
21:22 40.8 °F 40.0 °F 30.24 in Calm     97% 0.00 in WeatherDisplay:10.37 W/m2 CLR
21:35 40.6 °F 39.8 °F 30.24 in Calm     97% 0.00 in WeatherDisplay:10.37 W/m2 CLR
21:43 40.5 °F 39.7 °F 30.24 in Calm     97% 0.00 in WeatherDisplay:10.37 W/m2 CLR
22:01 39.6 °F 38.8 °F 30.24 in Calm     97% 0.00 in WeatherDisplay:10.37 W/m2 CLR
22:10 39.5 °F 38.7 °F 30.24 in Calm     97% 0.00 in WeatherDisplay:10.37 W/m2 CLR
22:17 39.5 °F 38.7 °F 30.24 in ENE 3.5 mph 3.5 mph 97% 0.00 in WeatherDisplay:10.37 W/m2 CLR
22:23 39.8 °F 39.3 °F 30.23 in Calm   0.1 mph 98% 0.00 in WeatherDisplay:10.37 W/m2 CLR
22:30 39.7 °F 38.9 °F 30.23 in ENE 2.3 mph 2.3 mph 97% 0.00 in WeatherDisplay:10.37 W/m2 CLR
22:42 40.0 °F 39.5 °F 30.23 in Calm     98% 0.00 in WeatherDisplay:10.37 W/m2 CLR
22:52 39.5 °F 39.0 °F 30.23 in Calm     98% 0.00 in WeatherDisplay:10.37 W/m2 CLR
23:05 39.2 °F 38.7 °F 30.23 in Calm   3.0 mph 98% 0.00 in WeatherDisplay:10.37 W/m2 CLR
23:11 39.1 °F 38.3 °F 30.23 in ENE 1.2 mph 1.2 mph 97% 0.00 in WeatherDisplay:10.37 W/m2 CLR
23:17 39.1 °F 38.3 °F 30.22 in Calm     97% 0.00 in WeatherDisplay:10.37 W/m2 CLR
23:27 38.8 °F 38.3 °F 30.22 in Calm     98% 0.00 in WeatherDisplay:10.37 W/m2 CLR
23:40 38.8 °F 38.3 °F 30.22 in ENE 1.2 mph 1.2 mph 98% 0.00 in WeatherDisplay:10.37 W/m2 CLR
23:57 38.5 °F 38.0 °F 30.21 in ENE 1.2 mph 1.2 mph 98% 0.00 in WeatherDisplay:10.37 W/m2 CLR
VanCam Weather
Compliments of Weather Underground - 4 mb